BAW40F KJFK-EGLL
Flight info
| Callsign | BAW40F |
|---|---|
| Flight time | 6h 26m |
| Altitude | 35000 |
| Route | MERIT DCT HFD DCT PUT DCT WITCH DCT ALLEX N535B UMESI/M084F360 DCT 5130N05000W 5330N04000W 5430N03000W 5430N02000W DCT NEBIN DCT OLGON/N0487F370 DCT LIFFY UL975 MALUD Q38 NUGRA |
| Aircraft | B77W/H-SDE1E2E3FGHIJ2J3J4J5M1RWXY/LB1D1 |
Departure
| Time | 2026-05-09 10:32 |
|---|---|
| Airport | John F. Kennedy International Airport (KJFK) |
Arrival
| Time | 2026-05-09 16:58 |
|---|---|
| Airport | London Heathrow Airport (EGLL) |
| Time | Latitude | Longitude | Altitude | Speed | Heading |
|---|---|---|---|---|---|
| 2026-05-09 10:18 | 40.64941 | -73.78977 | 22 ft | 0 kts | 145° |
| 2026-05-09 10:20 | 40.64947 | -73.78982 | 22 ft | 4 kts | 144° |
| 2026-05-09 10:20 | 40.64968 | -73.79003 | 23 ft | 4 kts | 148° |
| 2026-05-09 10:21 | 40.64980 | -73.79011 | 26 ft | 4 kts | 182° |
| 2026-05-09 10:21 | 40.65002 | -73.79005 | 25 ft | 4 kts | 218° |
| 2026-05-09 10:21 | 40.65017 | -73.78981 | 26 ft | 4 kts | 241° |
| 2026-05-09 10:21 | 40.65026 | -73.78959 | 28 ft | 1 kts | 240° |
| 2026-05-09 10:22 | 40.65028 | -73.78955 | 28 ft | 0 kts | 240° |
| 2026-05-09 10:23 | 40.65027 | -73.78956 | 22 ft | 1 kts | 239° |
| 2026-05-09 10:23 | 40.65015 | -73.78959 | 26 ft | 2 kts | 177° |
| 2026-05-09 10:24 | 40.65006 | -73.78939 | 26 ft | 3 kts | 96° |
| 2026-05-09 10:24 | 40.65045 | -73.78914 | 26 ft | 13 kts | 5° |
| 2026-05-09 10:24 | 40.65123 | -73.78879 | 25 ft | 11 kts | 60° |
| 2026-05-09 10:24 | 40.65145 | -73.78779 | 28 ft | 11 kts | 76° |
| 2026-05-09 10:25 | 40.65174 | -73.78683 | 29 ft | 11 kts | 63° |
| 2026-05-09 10:25 | 40.65213 | -73.78592 | 28 ft | 11 kts | 59° |
| 2026-05-09 10:25 | 40.65250 | -73.78501 | 29 ft | 11 kts | 64° |
| 2026-05-09 10:25 | 40.65264 | -73.78401 | 29 ft | 11 kts | 95° |
| 2026-05-09 10:26 | 40.65233 | -73.78305 | 29 ft | 11 kts | 118° |
| 2026-05-09 10:26 | 40.65191 | -73.78212 | 31 ft | 13 kts | 121° |
| 2026-05-09 10:26 | 40.65133 | -73.78085 | 29 ft | 18 kts | 121° |
| 2026-05-09 10:26 | 40.65068 | -73.77944 | 28 ft | 18 kts | 121° |
| 2026-05-09 10:27 | 40.65004 | -73.77802 | 29 ft | 18 kts | 120° |
| 2026-05-09 10:27 | 40.64941 | -73.77661 | 30 ft | 18 kts | 121° |
| 2026-05-09 10:27 | 40.64878 | -73.77522 | 28 ft | 17 kts | 121° |
| 2026-05-09 10:27 | 40.64817 | -73.77387 | 29 ft | 17 kts | 120° |
| 2026-05-09 10:28 | 40.64760 | -73.77252 | 28 ft | 17 kts | 109° |
| 2026-05-09 10:28 | 40.64821 | -73.77076 | 32 ft | 29 kts | 54° |
| 2026-05-09 10:28 | 40.64943 | -73.76857 | 32 ft | 13 kts | 55° |
| 2026-05-09 10:28 | 40.64971 | -73.76804 | 27 ft | 13 kts | 56° |
| 2026-05-09 10:29 | 40.64974 | -73.76690 | 27 ft | 13 kts | 102° |
| 2026-05-09 10:29 | 40.65015 | -73.76592 | 29 ft | 13 kts | 33° |
| 2026-05-09 10:29 | 40.65063 | -73.76554 | 32 ft | 13 kts | 34° |
| 2026-05-09 10:29 | 40.65092 | -73.76484 | 26 ft | 5 kts | 105° |
| 2026-05-09 10:30 | 40.65084 | -73.76453 | 27 ft | 5 kts | 110° |
| 2026-05-09 10:30 | 40.65073 | -73.76421 | 27 ft | 4 kts | 116° |
| 2026-05-09 10:30 | 40.65048 | -73.76383 | 27 ft | 7 kts | 159° |
| 2026-05-09 10:30 | 40.64987 | -73.76390 | 27 ft | 10 kts | 201° |
| 2026-05-09 10:31 | 40.64888 | -73.76462 | 30 ft | 36 kts | 210° |
| 2026-05-09 10:31 | 40.64449 | -73.76803 | 29 ft | 109 kts | 211° |
| 2026-05-09 10:31 | 40.63617 | -73.77454 | 26 ft | 167 kts | 210° |
| 2026-05-09 10:31 | 40.62582 | -73.78253 | 474 ft | 173 kts | 210° |
| 2026-05-09 10:32 | 40.61536 | -73.79055 | 1145 ft | 177 kts | 212° |
| 2026-05-09 10:32 | 40.60456 | -73.79838 | 1845 ft | 174 kts | 207° |
| 2026-05-09 10:32 | 40.59286 | -73.80209 | 2410 ft | 181 kts | 190° |
| 2026-05-09 10:32 | 40.57953 | -73.80379 | 2630 ft | 203 kts | 190° |
| 2026-05-09 10:33 | 40.56467 | -73.80584 | 2836 ft | 228 kts | 190° |
| 2026-05-09 10:33 | 40.54800 | -73.80817 | 3130 ft | 250 kts | 190° |
| 2026-05-09 10:33 | 40.53038 | -73.80757 | 3661 ft | 263 kts | 168° |
| 2026-05-09 10:33 | 40.51347 | -73.79746 | 4374 ft | 273 kts | 148° |
| 2026-05-09 10:34 | 40.49958 | -73.78003 | 5092 ft | 281 kts | 131° |
| 2026-05-09 10:34 | 40.48196 | -73.73322 | 6526 ft | 293 kts | 110° |
| 2026-05-09 10:34 | 40.47625 | -73.70770 | 7236 ft | 297 kts | 108° |
| 2026-05-09 10:35 | 40.47065 | -73.68142 | 7939 ft | 301 kts | 108° |
| 2026-05-09 10:35 | 40.46508 | -73.65472 | 8628 ft | 304 kts | 104° |
| 2026-05-09 10:35 | 40.46424 | -73.62678 | 9162 ft | 312 kts | 77° |
| 2026-05-09 10:35 | 40.47233 | -73.60066 | 9844 ft | 309 kts | 51° |
| 2026-05-09 10:36 | 40.48647 | -73.57959 | 10406 ft | 310 kts | 38° |
| 2026-05-09 10:36 | 40.50476 | -73.56397 | 10566 ft | 321 kts | 18° |
| 2026-05-09 10:36 | 40.52642 | -73.55384 | 10789 ft | 341 kts | 12° |
| 2026-05-09 10:36 | 40.54961 | -73.54475 | 10984 ft | 364 kts | 11° |
| 2026-05-09 10:37 | 40.57432 | -73.53491 | 11526 ft | 377 kts | 12° |
| 2026-05-09 10:37 | 40.59954 | -73.52421 | 12307 ft | 384 kts | 13° |
| 2026-05-09 10:37 | 40.62504 | -73.51274 | 13239 ft | 390 kts | 14° |
| 2026-05-09 10:37 | 40.65067 | -73.50073 | 14155 ft | 394 kts | 14° |
| 2026-05-09 10:38 | 40.67666 | -73.48824 | 14901 ft | 400 kts | 14° |
| 2026-05-09 10:38 | 40.70300 | -73.47540 | 15630 ft | 408 kts | 14° |
| 2026-05-09 10:38 | 40.72983 | -73.46222 | 16402 ft | 414 kts | 14° |
| 2026-05-09 10:38 | 40.75693 | -73.44884 | 17187 ft | 419 kts | 14° |
| 2026-05-09 10:39 | 40.78409 | -73.43541 | 17954 ft | 425 kts | 13° |
| 2026-05-09 10:39 | 40.81197 | -73.42161 | 18637 ft | 431 kts | 13° |
| 2026-05-09 10:39 | 40.84016 | -73.40765 | 19330 ft | 435 kts | 13° |
| 2026-05-09 10:39 | 40.86867 | -73.39351 | 20046 ft | 439 kts | 13° |
| 2026-05-09 10:40 | 40.89740 | -73.37926 | 20731 ft | 443 kts | 13° |
| 2026-05-09 10:40 | 40.92643 | -73.36485 | 21395 ft | 448 kts | 12° |
| 2026-05-09 10:40 | 40.95577 | -73.35029 | 22024 ft | 453 kts | 12° |
| 2026-05-09 10:40 | 40.98543 | -73.33556 | 22682 ft | 457 kts | 12° |
| 2026-05-09 10:41 | 41.01532 | -73.32069 | 23309 ft | 462 kts | 12° |
| 2026-05-09 10:41 | 41.04560 | -73.30562 | 23858 ft | 467 kts | 12° |
| 2026-05-09 10:41 | 41.07572 | -73.29060 | 24371 ft | 470 kts | 12° |
| 2026-05-09 10:41 | 41.10644 | -73.27527 | 24884 ft | 474 kts | 12° |
| 2026-05-09 10:42 | 41.13744 | -73.25978 | 25390 ft | 478 kts | 11° |
| 2026-05-09 10:42 | 41.16860 | -73.24419 | 25882 ft | 482 kts | 11° |
| 2026-05-09 10:42 | 41.20015 | -73.22839 | 26370 ft | 485 kts | 11° |
| 2026-05-09 10:42 | 41.23182 | -73.21252 | 26844 ft | 489 kts | 11° |
| 2026-05-09 10:43 | 41.26380 | -73.19647 | 27305 ft | 493 kts | 11° |
| 2026-05-09 10:43 | 41.29599 | -73.18031 | 27767 ft | 496 kts | 11° |
| 2026-05-09 10:43 | 41.32839 | -73.16399 | 28245 ft | 498 kts | 12° |
| 2026-05-09 10:43 | 41.35963 | -73.14356 | 28567 ft | 520 kts | 24° |
| 2026-05-09 10:44 | 41.38853 | -73.11312 | 28937 ft | 540 kts | 37° |
| 2026-05-09 10:44 | 41.41281 | -73.07410 | 29307 ft | 556 kts | 51° |
| 2026-05-09 10:44 | 41.43266 | -73.02958 | 29628 ft | 562 kts | 55° |
| 2026-05-09 10:44 | 41.45182 | -72.98384 | 29914 ft | 567 kts | 56° |
| 2026-05-09 10:45 | 41.47097 | -72.93778 | 30296 ft | 567 kts | 55° |
| 2026-05-09 10:46 | 41.54881 | -72.75779 | 32219 ft | 556 kts | 54° |
| 2026-05-09 10:46 | 41.56813 | -72.71393 | 32638 ft | 555 kts | 54° |
| 2026-05-09 10:46 | 41.58763 | -72.66948 | 33091 ft | 553 kts | 54° |
| 2026-05-09 10:46 | 41.60701 | -72.62509 | 33511 ft | 552 kts | 54° |
| 2026-05-09 10:47 | 41.62628 | -72.58086 | 33891 ft | 551 kts | 55° |
| 2026-05-09 10:47 | 41.64555 | -72.53660 | 34225 ft | 551 kts | 54° |
| 2026-05-09 10:47 | 41.66510 | -72.49251 | 34509 ft | 551 kts | 54° |
| 2026-05-09 10:47 | 41.68491 | -72.44860 | 34744 ft | 551 kts | 54° |
| 2026-05-09 10:48 | 41.70480 | -72.40479 | 34961 ft | 552 kts | 54° |
| 2026-05-09 10:48 | 41.74443 | -72.31721 | 35047 ft | 553 kts | 54° |
| 2026-05-09 10:49 | 41.78395 | -72.22904 | 35036 ft | 550 kts | 54° |
| 2026-05-09 10:49 | 41.82318 | -72.14112 | 35048 ft | 549 kts | 55° |
| 2026-05-09 10:50 | 41.86232 | -72.05320 | 35044 ft | 550 kts | 55° |
| 2026-05-09 10:50 | 41.90157 | -71.96480 | 35041 ft | 551 kts | 55° |
| 2026-05-09 10:51 | 41.94108 | -71.87756 | 35031 ft | 548 kts | 51° |
| 2026-05-09 10:51 | 41.98835 | -71.79832 | 35044 ft | 540 kts | 39° |
| 2026-05-09 10:52 | 42.04227 | -71.72824 | 35045 ft | 539 kts | 38° |
| 2026-05-09 10:52 | 42.09664 | -71.65852 | 35045 ft | 540 kts | 38° |
| 2026-05-09 10:53 | 42.15026 | -71.58871 | 35039 ft | 540 kts | 38° |
| 2026-05-09 10:53 | 42.20401 | -71.51797 | 35044 ft | 540 kts | 39° |
| 2026-05-09 10:54 | 42.25768 | -71.44711 | 35052 ft | 540 kts | 39° |
| 2026-05-09 10:54 | 42.31136 | -71.37614 | 35031 ft | 540 kts | 39° |
| 2026-05-09 10:55 | 42.36463 | -71.30556 | 35052 ft | 540 kts | 39° |
| 2026-05-09 10:55 | 42.41823 | -71.23436 | 35045 ft | 540 kts | 39° |
| 2026-05-09 10:56 | 42.47184 | -71.16298 | 35047 ft | 541 kts | 39° |
| 2026-05-09 10:56 | 42.52540 | -71.09148 | 35053 ft | 541 kts | 40° |
| 2026-05-09 10:57 | 42.57868 | -71.02017 | 35056 ft | 542 kts | 40° |
| 2026-05-09 10:57 | 42.63226 | -70.94827 | 35051 ft | 541 kts | 40° |
| 2026-05-09 10:58 | 42.68435 | -70.87406 | 35056 ft | 546 kts | 47° |
| 2026-05-09 10:58 | 42.72807 | -70.78899 | 35054 ft | 551 kts | 54° |
| 2026-05-09 10:59 | 42.76866 | -70.70143 | 35056 ft | 551 kts | 55° |
| 2026-05-09 10:59 | 42.80959 | -70.61338 | 35045 ft | 550 kts | 55° |
| 2026-05-09 11:00 | 42.85084 | -70.52566 | 35041 ft | 550 kts | 54° |
| 2026-05-09 11:00 | 42.89225 | -70.43786 | 35050 ft | 551 kts | 55° |
| 2026-05-09 11:01 | 42.93359 | -70.34994 | 35054 ft | 550 kts | 55° |
| 2026-05-09 11:01 | 42.96928 | -70.27374 | 35048 ft | 551 kts | 55° |
| 2026-05-09 11:02 | 43.01050 | -70.18541 | 35053 ft | 551 kts | 56° |
| 2026-05-09 11:02 | 43.05166 | -70.09697 | 35062 ft | 551 kts | 56° |
| 2026-05-09 11:03 | 43.09275 | -70.00841 | 35053 ft | 551 kts | 56° |
| 2026-05-09 11:03 | 43.13340 | -69.92053 | 35056 ft | 550 kts | 56° |
| 2026-05-09 11:04 | 43.17429 | -69.83186 | 35059 ft | 552 kts | 56° |
| 2026-05-09 11:04 | 43.19471 | -69.78744 | 34839 ft | 548 kts | 52° |
| 2026-05-09 11:04 | 43.21488 | -69.74342 | 34944 ft | 542 kts | 52° |
| 2026-05-09 11:05 | 43.25496 | -69.65602 | 35049 ft | 541 kts | 52° |
| 2026-05-09 11:05 | 43.29459 | -69.56940 | 35055 ft | 538 kts | 53° |
| 2026-05-09 11:06 | 43.33426 | -69.48240 | 35059 ft | 536 kts | 53° |
| 2026-05-09 11:06 | 43.37376 | -69.39548 | 35067 ft | 537 kts | 53° |
| 2026-05-09 11:07 | 43.41322 | -69.30840 | 35071 ft | 537 kts | 53° |
| 2026-05-09 11:07 | 43.45258 | -69.22126 | 35069 ft | 536 kts | 53° |
| 2026-05-09 11:08 | 43.49161 | -69.13459 | 35065 ft | 536 kts | 53° |
| 2026-05-09 11:08 | 43.53080 | -69.04731 | 35064 ft | 535 kts | 53° |
| 2026-05-09 11:09 | 43.56989 | -68.96000 | 35065 ft | 535 kts | 54° |
| 2026-05-09 11:09 | 43.60893 | -68.87254 | 35069 ft | 535 kts | 54° |
| 2026-05-09 11:10 | 43.64783 | -68.78511 | 35069 ft | 534 kts | 54° |
| 2026-05-09 11:10 | 43.68635 | -68.69830 | 35066 ft | 533 kts | 54° |
| 2026-05-09 11:11 | 43.72498 | -68.61097 | 35068 ft | 533 kts | 54° |
| 2026-05-09 11:11 | 43.76359 | -68.52343 | 35071 ft | 533 kts | 54° |
| 2026-05-09 11:12 | 43.80214 | -68.43575 | 35069 ft | 533 kts | 54° |
| 2026-05-09 11:12 | 43.83125 | -68.36938 | 35069 ft | 533 kts | 55° |
| 2026-05-09 11:13 | 43.86502 | -68.29227 | 35064 ft | 532 kts | 54° |
| 2026-05-09 11:13 | 43.89700 | -68.21904 | 35068 ft | 532 kts | 55° |
| 2026-05-09 11:14 | 43.93524 | -68.13113 | 35066 ft | 532 kts | 55° |
| 2026-05-09 11:14 | 43.97342 | -68.04309 | 35067 ft | 532 kts | 55° |
| 2026-05-09 11:15 | 44.01127 | -67.95554 | 35066 ft | 532 kts | 55° |
| 2026-05-09 11:15 | 44.04926 | -67.86743 | 35065 ft | 532 kts | 55° |
| 2026-05-09 11:16 | 44.08720 | -67.77914 | 35071 ft | 532 kts | 56° |
| 2026-05-09 11:16 | 44.12507 | -67.69076 | 35068 ft | 531 kts | 56° |
| 2026-05-09 11:17 | 44.16256 | -67.60298 | 35063 ft | 531 kts | 56° |
| 2026-05-09 11:17 | 44.20014 | -67.51472 | 35066 ft | 529 kts | 56° |
| 2026-05-09 11:18 | 44.23761 | -67.42646 | 35068 ft | 529 kts | 56° |
| 2026-05-09 11:18 | 44.27499 | -67.33814 | 35051 ft | 529 kts | 56° |
| 2026-05-09 11:19 | 44.31226 | -67.24978 | 35067 ft | 528 kts | 56° |
| 2026-05-09 11:19 | 44.34917 | -67.16201 | 35065 ft | 527 kts | 56° |
| 2026-05-09 11:20 | 44.38628 | -67.07354 | 35055 ft | 527 kts | 57° |
| 2026-05-09 11:20 | 44.42435 | -66.98623 | 35051 ft | 524 kts | 51° |
| 2026-05-09 11:21 | 44.46910 | -66.90609 | 35053 ft | 522 kts | 47° |
| 2026-05-09 11:21 | 44.51462 | -66.82763 | 35048 ft | 522 kts | 47° |
| 2026-05-09 11:22 | 44.56013 | -66.74840 | 35047 ft | 522 kts | 48° |
| 2026-05-09 11:22 | 44.60531 | -66.66873 | 35042 ft | 521 kts | 48° |
| 2026-05-09 11:23 | 44.65029 | -66.58889 | 35034 ft | 521 kts | 48° |
| 2026-05-09 11:23 | 44.69494 | -66.50941 | 35032 ft | 521 kts | 48° |
| 2026-05-09 11:24 | 44.73979 | -66.42942 | 35032 ft | 521 kts | 49° |
| 2026-05-09 11:24 | 44.78454 | -66.34940 | 35035 ft | 520 kts | 49° |
| 2026-05-09 11:25 | 44.82929 | -66.26918 | 35043 ft | 521 kts | 49° |
| 2026-05-09 11:25 | 44.87399 | -66.18881 | 35047 ft | 521 kts | 49° |
| 2026-05-09 11:26 | 44.91835 | -66.10882 | 35047 ft | 521 kts | 49° |
| 2026-05-09 11:26 | 44.96288 | -66.02830 | 35044 ft | 520 kts | 49° |
| 2026-05-09 11:27 | 45.00734 | -65.94767 | 35042 ft | 520 kts | 49° |
| 2026-05-09 11:27 | 45.05172 | -65.86696 | 35040 ft | 520 kts | 49° |
| 2026-05-09 11:28 | 45.09572 | -65.78673 | 35032 ft | 520 kts | 49° |
| 2026-05-09 11:28 | 45.13998 | -65.70579 | 35028 ft | 519 kts | 49° |
| 2026-05-09 11:29 | 45.18413 | -65.62480 | 35028 ft | 519 kts | 50° |
| 2026-05-09 11:29 | 45.22825 | -65.54367 | 35029 ft | 519 kts | 50° |
| 2026-05-09 11:30 | 45.27230 | -65.46242 | 35025 ft | 519 kts | 50° |
| 2026-05-09 11:30 | 45.31602 | -65.38154 | 35021 ft | 520 kts | 50° |
| 2026-05-09 11:31 | 45.35996 | -65.30003 | 35007 ft | 519 kts | 50° |
| 2026-05-09 11:31 | 45.40382 | -65.21843 | 35024 ft | 520 kts | 50° |
| 2026-05-09 11:32 | 45.44769 | -65.13658 | 35023 ft | 519 kts | 50° |
| 2026-05-09 11:32 | 45.49115 | -65.05527 | 35010 ft | 519 kts | 50° |
| 2026-05-09 11:33 | 45.53484 | -64.97328 | 35006 ft | 519 kts | 50° |
| 2026-05-09 11:33 | 45.60018 | -64.85021 | 35007 ft | 519 kts | 50° |
| 2026-05-09 11:34 | 45.64366 | -64.76803 | 35010 ft | 519 kts | 50° |
| 2026-05-09 11:34 | 45.68709 | -64.68570 | 35002 ft | 519 kts | 50° |
| 2026-05-09 11:35 | 45.73017 | -64.60380 | 35004 ft | 518 kts | 51° |
| 2026-05-09 11:35 | 45.77349 | -64.52120 | 34999 ft | 518 kts | 51° |
| 2026-05-09 11:36 | 45.81672 | -64.43853 | 35001 ft | 518 kts | 51° |
| 2026-05-09 11:36 | 45.85433 | -64.36639 | 34996 ft | 518 kts | 51° |
| 2026-05-09 11:37 | 45.89751 | -64.28337 | 34994 ft | 519 kts | 51° |
| 2026-05-09 11:37 | 45.94054 | -64.20039 | 34991 ft | 519 kts | 51° |
| 2026-05-09 11:38 | 45.98359 | -64.11712 | 34995 ft | 519 kts | 51° |
| 2026-05-09 11:38 | 46.02630 | -64.03426 | 34991 ft | 519 kts | 51° |
| 2026-05-09 11:39 | 46.06919 | -63.95081 | 34995 ft | 519 kts | 51° |
| 2026-05-09 11:40 | 46.10973 | -63.87169 | 34996 ft | 519 kts | 51° |
| 2026-05-09 11:40 | 46.14940 | -63.79407 | 34994 ft | 518 kts | 52° |
| 2026-05-09 11:41 | 46.19184 | -63.71078 | 34997 ft | 519 kts | 52° |
| 2026-05-09 11:41 | 46.23452 | -63.62678 | 34993 ft | 519 kts | 52° |
| 2026-05-09 11:42 | 46.27711 | -63.54270 | 34992 ft | 519 kts | 52° |
| 2026-05-09 11:42 | 46.31969 | -63.45837 | 34983 ft | 519 kts | 52° |
| 2026-05-09 11:43 | 46.36220 | -63.37394 | 34990 ft | 519 kts | 52° |
| 2026-05-09 11:43 | 46.40432 | -63.29003 | 34995 ft | 519 kts | 52° |
| 2026-05-09 11:44 | 46.44675 | -63.20527 | 34991 ft | 519 kts | 52° |
| 2026-05-09 11:44 | 46.48910 | -63.12038 | 34991 ft | 519 kts | 53° |
| 2026-05-09 11:45 | 46.53141 | -63.03532 | 34991 ft | 520 kts | 53° |
| 2026-05-09 11:45 | 46.57338 | -62.95069 | 34994 ft | 519 kts | 53° |
| 2026-05-09 11:46 | 46.61555 | -62.86539 | 34995 ft | 520 kts | 53° |
| 2026-05-09 11:46 | 46.65764 | -62.78000 | 34996 ft | 520 kts | 53° |
| 2026-05-09 11:47 | 46.69970 | -62.69442 | 34999 ft | 520 kts | 53° |
| 2026-05-09 11:47 | 46.74175 | -62.60857 | 34998 ft | 520 kts | 53° |
| 2026-05-09 11:48 | 46.78339 | -62.52331 | 35003 ft | 520 kts | 54° |
| 2026-05-09 11:48 | 46.82524 | -62.43737 | 35003 ft | 519 kts | 54° |
| 2026-05-09 11:49 | 46.86707 | -62.35117 | 35006 ft | 520 kts | 54° |
| 2026-05-09 11:49 | 46.90886 | -62.26480 | 35010 ft | 520 kts | 54° |
| 2026-05-09 11:50 | 46.95051 | -62.17845 | 35013 ft | 520 kts | 54° |
| 2026-05-09 11:50 | 46.99190 | -62.09238 | 35014 ft | 520 kts | 54° |
| 2026-05-09 11:51 | 47.03350 | -62.00560 | 35015 ft | 520 kts | 54° |
| 2026-05-09 11:51 | 47.07489 | -61.91898 | 35012 ft | 520 kts | 55° |
| 2026-05-09 11:52 | 47.11637 | -61.83191 | 34997 ft | 521 kts | 55° |
| 2026-05-09 11:52 | 47.15785 | -61.74455 | 34983 ft | 521 kts | 55° |
| 2026-05-09 11:53 | 47.19892 | -61.65781 | 34978 ft | 521 kts | 55° |
| 2026-05-09 11:53 | 47.24022 | -61.57027 | 34975 ft | 521 kts | 55° |
| 2026-05-09 11:54 | 47.28154 | -61.48243 | 34972 ft | 521 kts | 56° |
| 2026-05-09 11:54 | 47.32270 | -61.39465 | 34976 ft | 521 kts | 56° |
| 2026-05-09 11:55 | 47.36360 | -61.30715 | 34980 ft | 521 kts | 56° |
| 2026-05-09 11:56 | 47.48667 | -61.04213 | 34992 ft | 522 kts | 56° |
| 2026-05-09 11:57 | 47.52747 | -60.95373 | 34992 ft | 522 kts | 56° |
| 2026-05-09 11:57 | 47.56834 | -60.86488 | 34988 ft | 522 kts | 57° |
| 2026-05-09 11:58 | 47.60911 | -60.77594 | 34979 ft | 521 kts | 57° |
| 2026-05-09 11:58 | 47.64958 | -60.68737 | 34981 ft | 522 kts | 57° |
| 2026-05-09 11:59 | 47.69022 | -60.59815 | 34983 ft | 523 kts | 57° |
| 2026-05-09 11:59 | 47.73088 | -60.50860 | 34978 ft | 523 kts | 57° |
| 2026-05-09 12:00 | 47.77122 | -60.41945 | 34978 ft | 523 kts | 57° |
| 2026-05-09 12:00 | 47.81173 | -60.32964 | 34976 ft | 523 kts | 58° |
| 2026-05-09 12:01 | 47.85216 | -60.23972 | 34970 ft | 523 kts | 58° |
| 2026-05-09 12:01 | 47.89261 | -60.14942 | 34971 ft | 524 kts | 58° |
| 2026-05-09 12:02 | 47.93270 | -60.05967 | 34968 ft | 524 kts | 58° |
| 2026-05-09 12:02 | 47.97309 | -59.96893 | 34969 ft | 525 kts | 58° |
| 2026-05-09 12:03 | 48.01343 | -59.87800 | 34962 ft | 525 kts | 58° |
| 2026-05-09 12:03 | 48.05381 | -59.78669 | 34959 ft | 526 kts | 58° |
| 2026-05-09 12:04 | 48.09381 | -59.69591 | 34961 ft | 526 kts | 59° |
| 2026-05-09 12:04 | 48.13396 | -59.60450 | 34967 ft | 526 kts | 59° |
| 2026-05-09 12:05 | 48.17394 | -59.51316 | 34960 ft | 526 kts | 59° |
| 2026-05-09 12:05 | 48.21401 | -59.42131 | 34960 ft | 527 kts | 59° |
| 2026-05-09 12:06 | 48.25401 | -59.32930 | 34960 ft | 527 kts | 59° |
| 2026-05-09 12:06 | 48.29373 | -59.23764 | 34956 ft | 527 kts | 59° |
| 2026-05-09 12:07 | 48.33363 | -59.14524 | 34956 ft | 527 kts | 60° |
| 2026-05-09 12:07 | 48.37348 | -59.05264 | 34956 ft | 528 kts | 60° |
| 2026-05-09 12:08 | 48.41331 | -58.95977 | 34948 ft | 528 kts | 60° |
| 2026-05-09 12:08 | 48.45290 | -58.86714 | 34950 ft | 528 kts | 60° |
| 2026-05-09 12:09 | 48.49261 | -58.77391 | 34951 ft | 529 kts | 60° |
| 2026-05-09 12:09 | 48.53228 | -58.68045 | 34944 ft | 529 kts | 60° |
| 2026-05-09 12:10 | 48.61118 | -58.49360 | 34958 ft | 529 kts | 61° |
| 2026-05-09 12:11 | 48.65065 | -58.39965 | 34928 ft | 529 kts | 61° |
| 2026-05-09 12:11 | 48.68328 | -58.32170 | 34945 ft | 529 kts | 61° |
| 2026-05-09 12:12 | 48.72265 | -58.22738 | 34935 ft | 529 kts | 61° |
| 2026-05-09 12:12 | 48.76178 | -58.13332 | 34925 ft | 530 kts | 62° |
| 2026-05-09 12:13 | 48.80101 | -58.03864 | 34920 ft | 530 kts | 62° |
| 2026-05-09 12:13 | 48.84013 | -57.94387 | 34918 ft | 530 kts | 62° |
| 2026-05-09 12:14 | 48.87922 | -57.84890 | 34905 ft | 530 kts | 62° |
| 2026-05-09 12:14 | 48.91813 | -57.75401 | 34897 ft | 529 kts | 62° |
| 2026-05-09 12:15 | 48.95672 | -57.65957 | 34909 ft | 529 kts | 63° |
| 2026-05-09 12:15 | 48.99555 | -57.56419 | 34903 ft | 530 kts | 63° |
| 2026-05-09 12:16 | 49.03411 | -57.46916 | 34906 ft | 530 kts | 63° |
| 2026-05-09 12:16 | 49.07270 | -57.37368 | 34902 ft | 529 kts | 63° |
| 2026-05-09 12:17 | 49.11126 | -57.27798 | 34907 ft | 529 kts | 63° |
| 2026-05-09 12:17 | 49.14974 | -57.18208 | 34905 ft | 529 kts | 63° |
| 2026-05-09 12:18 | 49.18792 | -57.08659 | 34894 ft | 529 kts | 64° |
| 2026-05-09 12:18 | 49.22628 | -56.99031 | 34891 ft | 529 kts | 64° |
| 2026-05-09 12:19 | 49.26449 | -56.89407 | 34893 ft | 529 kts | 64° |
| 2026-05-09 12:19 | 49.30240 | -56.79821 | 34890 ft | 530 kts | 64° |
| 2026-05-09 12:20 | 49.34056 | -56.70137 | 34878 ft | 531 kts | 64° |
| 2026-05-09 12:20 | 49.37862 | -56.60445 | 34867 ft | 530 kts | 65° |
| 2026-05-09 12:21 | 49.41634 | -56.50808 | 34869 ft | 530 kts | 65° |
| 2026-05-09 12:21 | 49.45419 | -56.41095 | 34870 ft | 531 kts | 65° |
| 2026-05-09 12:22 | 49.49209 | -56.31330 | 34878 ft | 532 kts | 65° |
| 2026-05-09 12:22 | 49.52998 | -56.21539 | 34869 ft | 533 kts | 65° |
| 2026-05-09 12:23 | 49.56778 | -56.11738 | 34877 ft | 532 kts | 66° |
| 2026-05-09 12:23 | 49.60523 | -56.01985 | 34872 ft | 532 kts | 66° |
| 2026-05-09 12:24 | 49.64287 | -55.92145 | 34865 ft | 533 kts | 66° |
| 2026-05-09 12:24 | 49.68049 | -55.82277 | 34872 ft | 533 kts | 66° |
| 2026-05-09 12:25 | 49.71801 | -55.72394 | 34876 ft | 533 kts | 67° |
| 2026-05-09 12:25 | 49.75520 | -55.62561 | 34877 ft | 534 kts | 67° |
| 2026-05-09 12:26 | 49.79259 | -55.52641 | 34877 ft | 534 kts | 67° |
| 2026-05-09 12:26 | 49.82995 | -55.42691 | 34872 ft | 534 kts | 68° |
| 2026-05-09 12:27 | 49.86719 | -55.32734 | 34869 ft | 534 kts | 68° |
| 2026-05-09 12:27 | 49.90433 | -55.22766 | 34863 ft | 534 kts | 68° |
| 2026-05-09 12:28 | 49.94117 | -55.12838 | 34862 ft | 534 kts | 68° |
| 2026-05-09 12:28 | 49.97817 | -55.02830 | 34867 ft | 534 kts | 69° |
| 2026-05-09 12:29 | 50.01507 | -54.92813 | 34867 ft | 534 kts | 69° |
| 2026-05-09 12:29 | 50.05182 | -54.82795 | 34858 ft | 533 kts | 69° |
| 2026-05-09 12:30 | 50.08824 | -54.72829 | 34849 ft | 533 kts | 70° |
| 2026-05-09 12:30 | 50.14301 | -54.57768 | 34837 ft | 532 kts | 70° |
| 2026-05-09 12:31 | 50.19753 | -54.42688 | 34832 ft | 532 kts | 71° |
| 2026-05-09 12:32 | 50.23350 | -54.32689 | 34832 ft | 532 kts | 71° |
| 2026-05-09 12:32 | 50.26966 | -54.22600 | 34823 ft | 532 kts | 71° |
| 2026-05-09 12:33 | 50.30571 | -54.12502 | 34814 ft | 531 kts | 71° |
| 2026-05-09 12:33 | 50.34163 | -54.02400 | 34809 ft | 531 kts | 72° |
| 2026-05-09 12:34 | 50.37746 | -53.92281 | 34801 ft | 531 kts | 72° |
| 2026-05-09 12:34 | 50.41299 | -53.82209 | 34794 ft | 531 kts | 72° |
| 2026-05-09 12:35 | 50.44861 | -53.72073 | 34781 ft | 531 kts | 73° |
| 2026-05-09 12:35 | 50.48416 | -53.61912 | 34780 ft | 531 kts | 73° |
| 2026-05-09 12:36 | 50.51962 | -53.51737 | 34773 ft | 531 kts | 73° |
| 2026-05-09 12:36 | 50.55476 | -53.41612 | 34767 ft | 531 kts | 74° |
| 2026-05-09 12:37 | 50.59008 | -53.31404 | 34773 ft | 531 kts | 74° |
| 2026-05-09 12:37 | 50.62531 | -53.21176 | 34750 ft | 531 kts | 74° |
| 2026-05-09 12:38 | 50.66042 | -53.10939 | 34738 ft | 531 kts | 74° |
| 2026-05-09 12:38 | 50.69519 | -53.00760 | 34739 ft | 531 kts | 74° |
| 2026-05-09 12:39 | 50.73008 | -52.90505 | 34728 ft | 530 kts | 75° |
| 2026-05-09 12:39 | 50.76483 | -52.80248 | 34726 ft | 530 kts | 75° |
| 2026-05-09 12:40 | 50.79951 | -52.69972 | 34731 ft | 529 kts | 74° |
| 2026-05-09 12:40 | 50.83386 | -52.59684 | 34719 ft | 526 kts | 76° |
| 2026-05-09 12:41 | 50.86305 | -52.49280 | 34709 ft | 520 kts | 80° |
| 2026-05-09 12:41 | 50.89095 | -52.38723 | 34708 ft | 519 kts | 80° |
| 2026-05-09 12:42 | 50.91883 | -52.28183 | 34706 ft | 519 kts | 79° |
| 2026-05-09 12:42 | 50.94676 | -52.17696 | 34702 ft | 519 kts | 79° |
| 2026-05-09 12:43 | 50.97485 | -52.07140 | 34705 ft | 520 kts | 79° |
| 2026-05-09 12:43 | 51.00289 | -51.96559 | 34703 ft | 520 kts | 79° |
| 2026-05-09 12:44 | 51.03083 | -51.85959 | 34705 ft | 520 kts | 79° |
| 2026-05-09 12:44 | 51.05868 | -51.75336 | 34708 ft | 521 kts | 79° |
| 2026-05-09 12:45 | 51.08627 | -51.64767 | 34706 ft | 522 kts | 79° |
| 2026-05-09 12:45 | 51.11400 | -51.54095 | 34716 ft | 522 kts | 79° |
| 2026-05-09 12:46 | 51.14166 | -51.43397 | 34710 ft | 523 kts | 78° |
| 2026-05-09 12:46 | 51.16929 | -51.32664 | 34706 ft | 523 kts | 78° |
| 2026-05-09 12:47 | 51.19662 | -51.21998 | 34705 ft | 523 kts | 78° |
| 2026-05-09 12:47 | 51.22400 | -51.11261 | 34707 ft | 523 kts | 78° |
| 2026-05-09 12:48 | 51.25128 | -51.00510 | 34706 ft | 522 kts | 79° |
| 2026-05-09 12:48 | 51.27841 | -50.89768 | 34709 ft | 521 kts | 79° |
| 2026-05-09 12:49 | 51.30524 | -50.79091 | 34711 ft | 521 kts | 79° |
| 2026-05-09 12:49 | 51.33211 | -50.68343 | 34717 ft | 521 kts | 79° |
| 2026-05-09 12:50 | 51.35895 | -50.57563 | 34735 ft | 520 kts | 79° |
| 2026-05-09 12:50 | 51.37231 | -50.52178 | 34856 ft | 520 kts | 78° |
| 2026-05-09 12:50 | 51.38562 | -50.46792 | 35042 ft | 521 kts | 78° |
| 2026-05-09 12:50 | 51.39896 | -50.41386 | 35344 ft | 521 kts | 78° |
| 2026-05-09 12:51 | 51.41203 | -50.36075 | 35651 ft | 520 kts | 78° |
| 2026-05-09 12:51 | 51.42528 | -50.30687 | 35962 ft | 519 kts | 78° |
| 2026-05-09 12:51 | 51.43845 | -50.25311 | 36260 ft | 518 kts | 78° |
| 2026-05-09 12:51 | 51.45159 | -50.19935 | 36525 ft | 518 kts | 78° |
| 2026-05-09 12:52 | 51.46471 | -50.14545 | 36673 ft | 519 kts | 78° |
| 2026-05-09 12:52 | 51.49094 | -50.03749 | 36736 ft | 520 kts | 78° |
| 2026-05-09 12:53 | 51.51723 | -49.93028 | 36736 ft | 520 kts | 77° |
| 2026-05-09 12:53 | 51.54437 | -49.82284 | 36740 ft | 519 kts | 77° |
| 2026-05-09 12:54 | 51.57148 | -49.71546 | 36763 ft | 519 kts | 77° |
| 2026-05-09 12:54 | 51.59843 | -49.60763 | 36742 ft | 519 kts | 77° |
| 2026-05-09 12:55 | 51.62503 | -49.50033 | 36758 ft | 520 kts | 77° |
| 2026-05-09 12:55 | 51.65172 | -49.39210 | 36758 ft | 520 kts | 77° |
| 2026-05-09 12:56 | 51.67832 | -49.28371 | 36758 ft | 521 kts | 77° |
| 2026-05-09 12:56 | 51.70486 | -49.17511 | 36764 ft | 520 kts | 77° |
| 2026-05-09 12:57 | 51.73109 | -49.06726 | 36768 ft | 520 kts | 77° |
| 2026-05-09 12:57 | 51.75735 | -48.95870 | 36775 ft | 519 kts | 77° |
| 2026-05-09 12:58 | 51.78349 | -48.85010 | 36777 ft | 519 kts | 77° |
| 2026-05-09 12:58 | 51.80952 | -48.74141 | 36783 ft | 518 kts | 77° |
| 2026-05-09 12:59 | 51.83525 | -48.63348 | 36787 ft | 517 kts | 77° |
| 2026-05-09 12:59 | 51.86094 | -48.52514 | 36791 ft | 516 kts | 77° |
| 2026-05-09 13:00 | 51.88652 | -48.41672 | 36792 ft | 515 kts | 77° |
| 2026-05-09 13:00 | 51.91178 | -48.30914 | 36799 ft | 514 kts | 77° |
| 2026-05-09 13:01 | 51.93704 | -48.20097 | 36818 ft | 513 kts | 77° |
| 2026-05-09 13:01 | 51.96216 | -48.09291 | 36817 ft | 512 kts | 77° |
| 2026-05-09 13:02 | 51.98711 | -47.98497 | 36828 ft | 511 kts | 77° |
| 2026-05-09 13:02 | 52.01193 | -47.87708 | 36829 ft | 510 kts | 77° |
| 2026-05-09 13:03 | 52.03643 | -47.77002 | 36833 ft | 509 kts | 77° |
| 2026-05-09 13:03 | 52.06101 | -47.66211 | 36834 ft | 509 kts | 77° |
| 2026-05-09 13:04 | 52.08546 | -47.55421 | 36834 ft | 509 kts | 77° |
| 2026-05-09 13:04 | 52.10981 | -47.44615 | 36856 ft | 509 kts | 77° |
| 2026-05-09 13:05 | 52.13388 | -47.33880 | 36863 ft | 508 kts | 77° |
| 2026-05-09 13:05 | 52.15801 | -47.23067 | 36868 ft | 508 kts | 77° |
| 2026-05-09 13:06 | 52.18201 | -47.12253 | 36875 ft | 508 kts | 77° |
| 2026-05-09 13:06 | 52.20590 | -47.01431 | 36875 ft | 507 kts | 77° |
| 2026-05-09 13:07 | 52.22953 | -46.90670 | 36886 ft | 507 kts | 77° |
| 2026-05-09 13:07 | 52.25311 | -46.79877 | 36887 ft | 508 kts | 78° |
| 2026-05-09 13:08 | 52.27669 | -46.69027 | 36906 ft | 508 kts | 78° |
| 2026-05-09 13:08 | 52.29821 | -46.59077 | 36908 ft | 508 kts | 78° |
| 2026-05-09 13:09 | 52.32142 | -46.48290 | 36903 ft | 508 kts | 77° |
| 2026-05-09 13:09 | 52.34475 | -46.37391 | 36914 ft | 508 kts | 77° |
| 2026-05-09 13:10 | 52.36804 | -46.26447 | 36927 ft | 508 kts | 78° |
| 2026-05-09 13:10 | 52.39142 | -46.15404 | 36932 ft | 509 kts | 78° |
| 2026-05-09 13:11 | 52.41421 | -46.04584 | 36946 ft | 509 kts | 77° |
| 2026-05-09 13:11 | 52.43712 | -45.93649 | 36955 ft | 508 kts | 77° |
| 2026-05-09 13:12 | 52.45988 | -45.82727 | 36961 ft | 508 kts | 77° |
| 2026-05-09 13:12 | 52.48262 | -45.71746 | 36962 ft | 507 kts | 77° |
| 2026-05-09 13:13 | 52.50514 | -45.60814 | 36966 ft | 507 kts | 77° |
| 2026-05-09 13:13 | 52.52758 | -45.49863 | 36977 ft | 507 kts | 77° |
| 2026-05-09 13:14 | 52.54986 | -45.38925 | 36989 ft | 508 kts | 77° |
| 2026-05-09 13:16 | 52.63791 | -44.95111 | 37015 ft | 508 kts | 77° |
| 2026-05-09 13:16 | 52.65966 | -44.84132 | 37028 ft | 508 kts | 77° |
| 2026-05-09 13:17 | 52.68136 | -44.73119 | 37039 ft | 508 kts | 77° |
| 2026-05-09 13:17 | 52.70323 | -44.61957 | 37048 ft | 507 kts | 77° |
| 2026-05-09 13:18 | 52.72464 | -44.50968 | 37054 ft | 507 kts | 77° |
| 2026-05-09 13:18 | 52.74599 | -44.39941 | 37058 ft | 507 kts | 77° |
| 2026-05-09 13:19 | 52.76732 | -44.28860 | 37068 ft | 507 kts | 77° |
| 2026-05-09 13:19 | 52.78862 | -44.17732 | 37072 ft | 507 kts | 77° |
| 2026-05-09 13:20 | 52.80950 | -44.06762 | 37085 ft | 506 kts | 77° |
| 2026-05-09 13:20 | 52.83086 | -43.95474 | 37103 ft | 506 kts | 77° |
| 2026-05-09 13:21 | 52.85161 | -43.84440 | 37101 ft | 506 kts | 77° |
| 2026-05-09 13:21 | 52.87228 | -43.73381 | 37103 ft | 506 kts | 77° |
| 2026-05-09 13:22 | 52.89305 | -43.62208 | 37127 ft | 506 kts | 77° |
| 2026-05-09 13:22 | 52.91356 | -43.51105 | 37130 ft | 506 kts | 77° |
| 2026-05-09 13:23 | 52.96449 | -43.23238 | 37151 ft | 506 kts | 77° |
| 2026-05-09 13:24 | 52.98466 | -43.12089 | 37156 ft | 506 kts | 77° |
| 2026-05-09 13:24 | 53.00496 | -43.00793 | 37167 ft | 506 kts | 77° |
| 2026-05-09 13:25 | 53.02471 | -42.89741 | 37173 ft | 506 kts | 77° |
| 2026-05-09 13:26 | 53.05460 | -42.72875 | 37180 ft | 506 kts | 77° |
| 2026-05-09 13:26 | 53.07433 | -42.61660 | 37196 ft | 507 kts | 77° |
| 2026-05-09 13:27 | 53.09398 | -42.50418 | 37195 ft | 507 kts | 77° |
| 2026-05-09 13:27 | 53.11351 | -42.39174 | 37204 ft | 506 kts | 77° |
| 2026-05-09 13:28 | 53.13286 | -42.27960 | 37215 ft | 506 kts | 77° |
| 2026-05-09 13:28 | 53.15212 | -42.16727 | 37221 ft | 506 kts | 78° |
| 2026-05-09 13:29 | 53.17140 | -42.05412 | 37230 ft | 506 kts | 78° |
| 2026-05-09 13:29 | 53.19040 | -41.94192 | 37235 ft | 505 kts | 78° |
| 2026-05-09 13:30 | 53.20932 | -41.82943 | 37242 ft | 505 kts | 78° |
| 2026-05-09 13:30 | 53.22815 | -41.71678 | 37253 ft | 504 kts | 78° |
| 2026-05-09 13:31 | 53.24691 | -41.60376 | 37262 ft | 504 kts | 78° |
| 2026-05-09 13:31 | 53.26526 | -41.49250 | 37267 ft | 503 kts | 78° |
| 2026-05-09 13:32 | 53.28381 | -41.37930 | 37278 ft | 503 kts | 78° |
| 2026-05-09 13:32 | 53.31134 | -41.20991 | 37288 ft | 502 kts | 78° |
| 2026-05-09 13:33 | 53.32969 | -41.09605 | 37295 ft | 502 kts | 78° |
| 2026-05-09 13:33 | 53.34751 | -40.98473 | 37305 ft | 502 kts | 78° |
| 2026-05-09 13:34 | 53.36538 | -40.87231 | 37309 ft | 502 kts | 78° |
| 2026-05-09 13:34 | 53.38336 | -40.75843 | 37318 ft | 503 kts | 78° |
| 2026-05-09 13:35 | 53.40106 | -40.64559 | 37327 ft | 504 kts | 78° |
| 2026-05-09 13:35 | 53.41868 | -40.53249 | 37330 ft | 505 kts | 78° |
| 2026-05-09 13:36 | 53.43632 | -40.41845 | 37337 ft | 506 kts | 78° |
| 2026-05-09 13:36 | 53.45391 | -40.30394 | 37345 ft | 505 kts | 78° |
| 2026-05-09 13:37 | 53.47119 | -40.19068 | 37343 ft | 502 kts | 78° |
| 2026-05-09 13:37 | 53.48831 | -40.07776 | 37352 ft | 498 kts | 78° |
| 2026-05-09 13:38 | 53.50508 | -39.96600 | 37371 ft | 497 kts | 78° |
| 2026-05-09 13:38 | 53.52146 | -39.85243 | 37375 ft | 499 kts | 79° |
| 2026-05-09 13:39 | 53.53766 | -39.73810 | 37385 ft | 502 kts | 79° |
| 2026-05-09 13:39 | 53.55372 | -39.62431 | 37386 ft | 505 kts | 79° |
| 2026-05-09 13:40 | 53.57000 | -39.50863 | 37387 ft | 505 kts | 78° |
| 2026-05-09 13:40 | 53.58595 | -39.39452 | 37389 ft | 502 kts | 79° |
| 2026-05-09 13:41 | 53.60175 | -39.28064 | 37393 ft | 499 kts | 79° |
| 2026-05-09 13:41 | 53.61732 | -39.16745 | 37413 ft | 498 kts | 79° |
| 2026-05-09 13:42 | 53.63285 | -39.05370 | 37428 ft | 498 kts | 79° |
| 2026-05-09 13:42 | 53.64821 | -38.94026 | 37406 ft | 499 kts | 79° |
| 2026-05-09 13:43 | 53.66366 | -38.82531 | 37406 ft | 499 kts | 79° |
| 2026-05-09 13:43 | 53.67880 | -38.71179 | 37438 ft | 499 kts | 79° |
| 2026-05-09 13:44 | 53.69378 | -38.59859 | 37439 ft | 499 kts | 79° |
| 2026-05-09 13:44 | 53.70881 | -38.48423 | 37433 ft | 498 kts | 79° |
| 2026-05-09 13:45 | 53.72360 | -38.37069 | 37454 ft | 497 kts | 79° |
| 2026-05-09 13:45 | 53.73832 | -38.25673 | 37452 ft | 497 kts | 79° |
| 2026-05-09 13:46 | 53.75300 | -38.14212 | 37447 ft | 498 kts | 79° |
| 2026-05-09 13:46 | 53.76745 | -38.02852 | 37462 ft | 498 kts | 79° |
| 2026-05-09 13:47 | 53.78185 | -37.91437 | 37462 ft | 496 kts | 79° |
| 2026-05-09 13:47 | 53.79604 | -37.80096 | 37471 ft | 493 kts | 79° |
| 2026-05-09 13:48 | 53.81010 | -37.68756 | 37480 ft | 490 kts | 79° |
| 2026-05-09 13:48 | 53.82395 | -37.57499 | 37499 ft | 491 kts | 79° |
| 2026-05-09 13:49 | 53.83780 | -37.46154 | 37495 ft | 493 kts | 79° |
| 2026-05-09 13:49 | 53.85157 | -37.34770 | 37500 ft | 494 kts | 78° |
| 2026-05-09 13:50 | 53.86518 | -37.23422 | 37497 ft | 496 kts | 78° |
| 2026-05-09 13:50 | 53.87890 | -37.11881 | 37505 ft | 497 kts | 78° |
| 2026-05-09 13:51 | 53.89251 | -37.00334 | 37514 ft | 498 kts | 78° |
| 2026-05-09 13:51 | 53.90576 | -36.89005 | 37514 ft | 495 kts | 78° |
| 2026-05-09 13:52 | 53.91901 | -36.77569 | 37521 ft | 492 kts | 78° |
| 2026-05-09 13:52 | 53.93195 | -36.66294 | 37520 ft | 491 kts | 78° |
| 2026-05-09 13:53 | 53.94503 | -36.54803 | 37540 ft | 493 kts | 78° |
| 2026-05-09 13:53 | 53.95791 | -36.43380 | 37537 ft | 493 kts | 78° |
| 2026-05-09 13:54 | 53.97073 | -36.31916 | 37545 ft | 494 kts | 78° |
| 2026-05-09 13:54 | 53.98343 | -36.20454 | 37544 ft | 493 kts | 78° |
| 2026-05-09 13:55 | 53.99586 | -36.09119 | 37544 ft | 490 kts | 78° |
| 2026-05-09 13:55 | 54.00817 | -35.97798 | 37549 ft | 487 kts | 78° |
| 2026-05-09 13:56 | 54.02046 | -35.86389 | 37561 ft | 489 kts | 78° |
| 2026-05-09 13:56 | 54.03247 | -35.75140 | 37559 ft | 490 kts | 78° |
| 2026-05-09 13:57 | 54.04466 | -35.63609 | 37566 ft | 490 kts | 78° |
| 2026-05-09 13:57 | 54.05659 | -35.52230 | 37564 ft | 490 kts | 78° |
| 2026-05-09 13:58 | 54.06824 | -35.40978 | 37573 ft | 488 kts | 78° |
| 2026-05-09 13:58 | 54.08001 | -35.29524 | 37578 ft | 487 kts | 78° |
| 2026-05-09 13:59 | 54.09159 | -35.18137 | 37581 ft | 488 kts | 78° |
| 2026-05-09 13:59 | 54.10304 | -35.06770 | 37585 ft | 489 kts | 78° |
| 2026-05-09 14:00 | 54.11066 | -34.99138 | 37581 ft | 487 kts | 78° |
| 2026-05-09 14:00 | 54.12559 | -34.84042 | 37582 ft | 484 kts | 78° |
| 2026-05-09 14:01 | 54.13670 | -34.72663 | 37574 ft | 481 kts | 78° |
| 2026-05-09 14:01 | 54.14757 | -34.61422 | 37603 ft | 480 kts | 78° |
| 2026-05-09 14:02 | 54.15815 | -34.50385 | 37608 ft | 480 kts | 78° |
| 2026-05-09 14:02 | 54.16890 | -34.39041 | 37588 ft | 480 kts | 78° |
| 2026-05-09 14:03 | 54.17947 | -34.27770 | 37591 ft | 479 kts | 78° |
| 2026-05-09 14:03 | 54.18976 | -34.16684 | 37612 ft | 478 kts | 78° |
| 2026-05-09 14:04 | 54.20001 | -34.05531 | 37594 ft | 478 kts | 78° |
| 2026-05-09 14:04 | 54.21013 | -33.94396 | 37604 ft | 477 kts | 78° |
| 2026-05-09 14:05 | 54.22026 | -33.83126 | 37614 ft | 476 kts | 78° |
| 2026-05-09 14:05 | 54.23017 | -33.71983 | 37615 ft | 476 kts | 78° |
| 2026-05-09 14:06 | 54.23997 | -33.60850 | 37616 ft | 475 kts | 78° |
| 2026-05-09 14:06 | 54.24978 | -33.49569 | 37619 ft | 475 kts | 78° |
| 2026-05-09 14:07 | 54.25927 | -33.38537 | 37621 ft | 474 kts | 78° |
| 2026-05-09 14:07 | 54.26881 | -33.27330 | 37624 ft | 473 kts | 78° |
| 2026-05-09 14:08 | 54.27822 | -33.16143 | 37630 ft | 472 kts | 78° |
| 2026-05-09 14:08 | 54.28733 | -33.05191 | 37630 ft | 472 kts | 78° |
| 2026-05-09 14:09 | 54.29649 | -32.94055 | 37636 ft | 471 kts | 78° |
| 2026-05-09 14:09 | 54.30551 | -32.82944 | 37635 ft | 471 kts | 78° |
| 2026-05-09 14:10 | 54.31877 | -32.66386 | 37641 ft | 470 kts | 78° |
| 2026-05-09 14:11 | 54.32751 | -32.55320 | 37641 ft | 470 kts | 78° |
| 2026-05-09 14:11 | 54.33621 | -32.44143 | 37645 ft | 470 kts | 78° |
| 2026-05-09 14:12 | 54.34467 | -32.33163 | 37646 ft | 469 kts | 78° |
| 2026-05-09 14:12 | 54.35310 | -32.22076 | 37645 ft | 469 kts | 78° |
| 2026-05-09 14:13 | 54.36143 | -32.10985 | 37650 ft | 468 kts | 78° |
| 2026-05-09 14:15 | 54.39356 | -31.66818 | 37655 ft | 466 kts | 78° |
| 2026-05-09 14:15 | 54.40130 | -31.55818 | 37657 ft | 465 kts | 78° |
| 2026-05-09 14:16 | 54.40897 | -31.44778 | 37656 ft | 465 kts | 78° |
| 2026-05-09 14:16 | 54.41653 | -31.33750 | 37658 ft | 465 kts | 78° |
| 2026-05-09 14:17 | 54.42396 | -31.22742 | 37659 ft | 464 kts | 78° |
| 2026-05-09 14:17 | 54.43123 | -31.11838 | 37662 ft | 464 kts | 78° |
| 2026-05-09 14:18 | 54.43846 | -31.00842 | 37664 ft | 463 kts | 78° |
| 2026-05-09 14:18 | 54.44563 | -30.89773 | 37662 ft | 463 kts | 78° |
| 2026-05-09 14:19 | 54.45259 | -30.78886 | 37664 ft | 463 kts | 78° |
| 2026-05-09 14:19 | 54.45947 | -30.67953 | 37666 ft | 462 kts | 78° |
| 2026-05-09 14:20 | 54.46628 | -30.56967 | 37668 ft | 462 kts | 78° |
| 2026-05-09 14:20 | 54.47300 | -30.45969 | 37671 ft | 462 kts | 78° |
| 2026-05-09 14:21 | 54.48284 | -30.29556 | 37667 ft | 462 kts | 78° |
| 2026-05-09 14:21 | 54.48930 | -30.18580 | 37670 ft | 461 kts | 78° |
| 2026-05-09 14:22 | 54.49569 | -30.07558 | 37671 ft | 461 kts | 78° |
| 2026-05-09 14:22 | 54.50176 | -29.96641 | 37668 ft | 461 kts | 79° |
| 2026-05-09 14:23 | 54.50634 | -29.85636 | 37669 ft | 462 kts | 80° |
| 2026-05-09 14:23 | 54.51039 | -29.74646 | 37676 ft | 462 kts | 80° |
| 2026-05-09 14:24 | 54.51449 | -29.63630 | 37664 ft | 461 kts | 80° |
| 2026-05-09 14:24 | 54.51860 | -29.52647 | 37669 ft | 460 kts | 80° |
| 2026-05-09 14:25 | 54.52266 | -29.41697 | 37674 ft | 460 kts | 80° |
| 2026-05-09 14:25 | 54.52664 | -29.30686 | 37670 ft | 460 kts | 80° |
| 2026-05-09 14:26 | 54.53052 | -29.19656 | 37672 ft | 460 kts | 80° |
| 2026-05-09 14:26 | 54.53428 | -29.08667 | 37668 ft | 459 kts | 80° |
| 2026-05-09 14:27 | 54.53792 | -28.97708 | 37672 ft | 458 kts | 80° |
| 2026-05-09 14:27 | 54.54144 | -28.86842 | 37672 ft | 458 kts | 80° |
| 2026-05-09 14:28 | 54.54490 | -28.75869 | 37675 ft | 458 kts | 80° |
| 2026-05-09 14:28 | 54.54824 | -28.64961 | 37673 ft | 457 kts | 80° |
| 2026-05-09 14:29 | 54.55146 | -28.54081 | 37670 ft | 456 kts | 80° |
| 2026-05-09 14:29 | 54.55460 | -28.43175 | 37674 ft | 456 kts | 80° |
| 2026-05-09 14:30 | 54.55768 | -28.32153 | 37673 ft | 455 kts | 80° |
| 2026-05-09 14:30 | 54.56058 | -28.21389 | 37678 ft | 455 kts | 80° |
| 2026-05-09 14:31 | 54.56343 | -28.10475 | 37666 ft | 454 kts | 80° |
| 2026-05-09 14:31 | 54.56613 | -27.99720 | 37678 ft | 453 kts | 80° |
| 2026-05-09 14:32 | 54.56876 | -27.88908 | 37682 ft | 453 kts | 80° |
| 2026-05-09 14:32 | 54.57131 | -27.78012 | 37672 ft | 453 kts | 80° |
| 2026-05-09 14:33 | 54.57374 | -27.67215 | 37667 ft | 453 kts | 80° |
| 2026-05-09 14:33 | 54.57607 | -27.56442 | 37674 ft | 452 kts | 80° |
| 2026-05-09 14:34 | 54.57831 | -27.45589 | 37671 ft | 452 kts | 80° |
| 2026-05-09 14:34 | 54.58045 | -27.34806 | 37671 ft | 452 kts | 80° |
| 2026-05-09 14:35 | 54.58252 | -27.23866 | 37675 ft | 452 kts | 80° |
| 2026-05-09 14:35 | 54.58447 | -27.13044 | 37671 ft | 452 kts | 80° |
| 2026-05-09 14:36 | 54.58633 | -27.02207 | 37671 ft | 452 kts | 80° |
| 2026-05-09 14:36 | 54.58750 | -26.95037 | 37675 ft | 452 kts | 80° |
| 2026-05-09 14:37 | 54.58903 | -26.85301 | 37667 ft | 452 kts | 80° |
| 2026-05-09 14:37 | 54.59063 | -26.74421 | 37669 ft | 451 kts | 80° |
| 2026-05-09 14:38 | 54.59214 | -26.63608 | 37672 ft | 451 kts | 80° |
| 2026-05-09 14:38 | 54.59356 | -26.52782 | 37671 ft | 451 kts | 80° |
| 2026-05-09 14:39 | 54.59481 | -26.42481 | 37670 ft | 451 kts | 80° |
| 2026-05-09 14:39 | 54.59602 | -26.31740 | 37667 ft | 451 kts | 80° |
| 2026-05-09 14:40 | 54.59715 | -26.20932 | 37669 ft | 451 kts | 80° |
| 2026-05-09 14:40 | 54.59818 | -26.10131 | 37664 ft | 450 kts | 80° |
| 2026-05-09 14:41 | 54.59911 | -25.99332 | 37664 ft | 450 kts | 80° |
| 2026-05-09 14:41 | 54.59994 | -25.88538 | 37665 ft | 450 kts | 80° |
| 2026-05-09 14:42 | 54.60068 | -25.77815 | 37662 ft | 450 kts | 80° |
| 2026-05-09 14:42 | 54.60132 | -25.67023 | 37662 ft | 450 kts | 80° |
| 2026-05-09 14:43 | 54.60187 | -25.56228 | 37663 ft | 450 kts | 80° |
| 2026-05-09 14:43 | 54.60232 | -25.45513 | 37663 ft | 450 kts | 80° |
| 2026-05-09 14:44 | 54.60268 | -25.34730 | 37663 ft | 450 kts | 80° |
| 2026-05-09 14:44 | 54.60294 | -25.23958 | 37657 ft | 449 kts | 80° |
| 2026-05-09 14:45 | 54.60308 | -25.14998 | 37661 ft | 449 kts | 81° |
| 2026-05-09 14:45 | 54.60316 | -25.04233 | 37656 ft | 449 kts | 81° |
| 2026-05-09 14:46 | 54.60314 | -24.91727 | 37660 ft | 449 kts | 81° |
| 2026-05-09 14:46 | 54.60302 | -24.80969 | 37653 ft | 448 kts | 81° |
| 2026-05-09 14:47 | 54.60285 | -24.72031 | 37652 ft | 448 kts | 81° |
| 2026-05-09 14:47 | 54.60255 | -24.61277 | 37654 ft | 448 kts | 81° |
| 2026-05-09 14:48 | 54.60216 | -24.50549 | 37654 ft | 448 kts | 81° |
| 2026-05-09 14:48 | 54.60168 | -24.39814 | 37661 ft | 448 kts | 81° |
| 2026-05-09 14:49 | 54.60110 | -24.29147 | 37657 ft | 447 kts | 81° |
| 2026-05-09 14:49 | 54.60043 | -24.18435 | 37652 ft | 446 kts | 81° |
| 2026-05-09 14:50 | 54.59966 | -24.07740 | 37648 ft | 446 kts | 81° |
| 2026-05-09 14:50 | 54.59880 | -23.97039 | 37650 ft | 446 kts | 81° |
| 2026-05-09 14:51 | 54.59785 | -23.86351 | 37647 ft | 446 kts | 81° |
| 2026-05-09 14:51 | 54.59681 | -23.75734 | 37646 ft | 446 kts | 81° |
| 2026-05-09 14:52 | 54.59566 | -23.65055 | 37645 ft | 445 kts | 81° |
| 2026-05-09 14:52 | 54.59443 | -23.54384 | 37647 ft | 445 kts | 82° |
| 2026-05-09 14:53 | 54.59310 | -23.43737 | 37642 ft | 444 kts | 82° |
| 2026-05-09 14:53 | 54.59169 | -23.33162 | 37651 ft | 444 kts | 82° |
| 2026-05-09 14:54 | 54.59019 | -23.22521 | 37645 ft | 444 kts | 82° |
| 2026-05-09 14:54 | 54.58859 | -23.11877 | 37643 ft | 444 kts | 82° |
| 2026-05-09 14:55 | 54.58689 | -23.01246 | 37641 ft | 444 kts | 82° |
| 2026-05-09 14:55 | 54.58511 | -22.90679 | 37637 ft | 444 kts | 82° |
| 2026-05-09 14:56 | 54.58323 | -22.80038 | 37640 ft | 444 kts | 82° |
| 2026-05-09 14:56 | 54.58125 | -22.69407 | 37633 ft | 444 kts | 82° |
| 2026-05-09 14:57 | 54.57918 | -22.58781 | 37638 ft | 444 kts | 82° |
| 2026-05-09 14:57 | 54.57704 | -22.48216 | 37632 ft | 444 kts | 82° |
| 2026-05-09 14:58 | 54.57478 | -22.37582 | 37632 ft | 444 kts | 82° |
| 2026-05-09 14:58 | 54.57243 | -22.26938 | 37626 ft | 444 kts | 83° |
| 2026-05-09 14:59 | 54.56999 | -22.16293 | 37628 ft | 444 kts | 83° |
| 2026-05-09 14:59 | 54.56747 | -22.05721 | 37624 ft | 445 kts | 83° |
| 2026-05-09 15:00 | 54.56523 | -21.96650 | 37620 ft | 445 kts | 83° |
| 2026-05-09 15:00 | 54.56252 | -21.85987 | 37623 ft | 445 kts | 83° |
| 2026-05-09 15:01 | 54.55827 | -21.69992 | 37622 ft | 446 kts | 83° |
| 2026-05-09 15:02 | 54.55531 | -21.59309 | 37617 ft | 446 kts | 83° |
| 2026-05-09 15:02 | 54.55228 | -21.48707 | 37612 ft | 447 kts | 83° |
| 2026-05-09 15:03 | 54.54912 | -21.38013 | 37611 ft | 446 kts | 83° |
| 2026-05-09 15:03 | 54.54588 | -21.27342 | 37607 ft | 446 kts | 83° |
| 2026-05-09 15:04 | 54.54256 | -21.16665 | 37619 ft | 447 kts | 83° |
| 2026-05-09 15:06 | 54.52826 | -20.73906 | 37609 ft | 449 kts | 84° |
| 2026-05-09 15:06 | 54.52444 | -20.63190 | 37602 ft | 448 kts | 84° |
| 2026-05-09 15:07 | 54.52055 | -20.52541 | 37601 ft | 449 kts | 84° |
| 2026-05-09 15:07 | 54.51654 | -20.41806 | 37599 ft | 450 kts | 84° |
| 2026-05-09 15:08 | 54.51242 | -20.31050 | 37597 ft | 450 kts | 84° |
| 2026-05-09 15:08 | 54.50610 | -20.14980 | 37592 ft | 451 kts | 84° |
| 2026-05-09 15:10 | 54.45078 | -19.72018 | 37587 ft | 470 kts | 98° |
| 2026-05-09 15:11 | 54.43146 | -19.61297 | 37583 ft | 470 kts | 98° |
| 2026-05-09 15:11 | 54.41220 | -19.50564 | 37582 ft | 470 kts | 98° |
| 2026-05-09 15:12 | 54.39288 | -19.39832 | 37574 ft | 471 kts | 98° |
| 2026-05-09 15:12 | 54.37357 | -19.29166 | 37572 ft | 471 kts | 98° |
| 2026-05-09 15:13 | 54.35401 | -19.18436 | 37569 ft | 472 kts | 98° |
| 2026-05-09 15:13 | 54.33430 | -19.07690 | 37571 ft | 472 kts | 98° |
| 2026-05-09 15:14 | 54.31450 | -18.96953 | 37570 ft | 473 kts | 99° |
| 2026-05-09 15:14 | 54.29458 | -18.86217 | 37563 ft | 473 kts | 99° |
| 2026-05-09 15:15 | 54.27469 | -18.75556 | 37560 ft | 474 kts | 99° |
| 2026-05-09 15:15 | 54.25452 | -18.64803 | 37561 ft | 475 kts | 99° |
| 2026-05-09 15:16 | 54.23424 | -18.54057 | 37553 ft | 475 kts | 99° |
| 2026-05-09 15:16 | 54.21395 | -18.43367 | 37551 ft | 476 kts | 99° |
| 2026-05-09 15:17 | 54.19341 | -18.32607 | 37549 ft | 477 kts | 100° |
| 2026-05-09 15:17 | 54.17276 | -18.21850 | 37544 ft | 477 kts | 100° |
| 2026-05-09 15:18 | 54.15198 | -18.11086 | 37541 ft | 478 kts | 100° |
| 2026-05-09 15:18 | 54.13110 | -18.00326 | 37537 ft | 478 kts | 100° |
| 2026-05-09 15:19 | 54.11009 | -17.89566 | 37541 ft | 479 kts | 100° |
| 2026-05-09 15:19 | 54.08912 | -17.78880 | 37535 ft | 479 kts | 101° |
| 2026-05-09 15:20 | 54.05722 | -17.62741 | 37531 ft | 480 kts | 101° |
| 2026-05-09 15:21 | 54.03582 | -17.51989 | 37527 ft | 480 kts | 101° |
| 2026-05-09 15:21 | 54.01430 | -17.41236 | 37521 ft | 480 kts | 101° |
| 2026-05-09 15:22 | 53.99282 | -17.30565 | 37507 ft | 480 kts | 101° |
| 2026-05-09 15:22 | 53.97111 | -17.19832 | 37511 ft | 481 kts | 102° |
| 2026-05-09 15:23 | 53.94929 | -17.09107 | 37510 ft | 481 kts | 102° |
| 2026-05-09 15:23 | 53.92735 | -16.98378 | 37510 ft | 481 kts | 102° |
| 2026-05-09 15:24 | 53.90544 | -16.87722 | 37508 ft | 482 kts | 102° |
| 2026-05-09 15:24 | 53.88330 | -16.77011 | 37508 ft | 482 kts | 102° |
| 2026-05-09 15:25 | 53.86104 | -16.66302 | 37504 ft | 482 kts | 103° |
| 2026-05-09 15:25 | 53.83866 | -16.55591 | 37497 ft | 482 kts | 103° |
| 2026-05-09 15:26 | 53.80508 | -16.39629 | 37494 ft | 482 kts | 103° |
| 2026-05-09 15:26 | 53.78248 | -16.28955 | 37489 ft | 482 kts | 103° |
| 2026-05-09 15:27 | 53.75977 | -16.18283 | 37493 ft | 482 kts | 103° |
| 2026-05-09 15:27 | 53.73698 | -16.07633 | 37488 ft | 482 kts | 104° |
| 2026-05-09 15:28 | 53.71426 | -15.97072 | 37478 ft | 482 kts | 104° |
| 2026-05-09 15:28 | 53.69129 | -15.86444 | 37481 ft | 482 kts | 104° |
| 2026-05-09 15:29 | 53.66822 | -15.75827 | 37480 ft | 482 kts | 104° |
| 2026-05-09 15:29 | 53.64503 | -15.65211 | 37466 ft | 483 kts | 104° |
| 2026-05-09 15:30 | 53.62190 | -15.54675 | 37480 ft | 483 kts | 104° |
| 2026-05-09 15:30 | 53.59849 | -15.44065 | 37464 ft | 483 kts | 105° |
| 2026-05-09 15:31 | 53.57499 | -15.33470 | 37457 ft | 483 kts | 105° |
| 2026-05-09 15:31 | 53.55152 | -15.22938 | 37457 ft | 484 kts | 105° |
| 2026-05-09 15:32 | 53.52779 | -15.12336 | 37452 ft | 485 kts | 105° |
| 2026-05-09 15:32 | 53.50737 | -15.01609 | 37450 ft | 479 kts | 96° |
| 2026-05-09 15:33 | 53.49937 | -14.90589 | 37446 ft | 472 kts | 86° |
| 2026-05-09 15:33 | 53.49979 | -14.79571 | 37449 ft | 472 kts | 84° |
| 2026-05-09 15:34 | 53.50060 | -14.68607 | 37439 ft | 473 kts | 85° |
| 2026-05-09 15:34 | 53.50095 | -14.57541 | 37439 ft | 474 kts | 85° |
| 2026-05-09 15:35 | 53.50098 | -14.46460 | 37438 ft | 475 kts | 86° |
| 2026-05-09 15:35 | 53.50089 | -14.35349 | 37430 ft | 476 kts | 86° |
| 2026-05-09 15:36 | 53.50072 | -14.24293 | 37436 ft | 477 kts | 86° |
| 2026-05-09 15:36 | 53.50045 | -14.13142 | 37433 ft | 478 kts | 86° |
| 2026-05-09 15:37 | 53.50009 | -14.01967 | 37427 ft | 479 kts | 86° |
| 2026-05-09 15:37 | 53.50226 | -13.90888 | 37420 ft | 478 kts | 83° |
| 2026-05-09 15:38 | 53.50609 | -13.79740 | 37420 ft | 478 kts | 83° |
| 2026-05-09 15:38 | 53.50988 | -13.68577 | 37415 ft | 479 kts | 83° |
| 2026-05-09 15:39 | 53.51337 | -13.57394 | 37415 ft | 480 kts | 84° |
| 2026-05-09 15:39 | 53.51664 | -13.46184 | 37415 ft | 481 kts | 84° |
| 2026-05-09 15:40 | 53.51977 | -13.35036 | 37410 ft | 481 kts | 84° |
| 2026-05-09 15:40 | 53.52282 | -13.23804 | 37410 ft | 482 kts | 84° |
| 2026-05-09 15:41 | 53.52578 | -13.12554 | 37403 ft | 482 kts | 84° |
| 2026-05-09 15:41 | 53.52863 | -13.01298 | 37407 ft | 482 kts | 84° |
| 2026-05-09 15:42 | 53.53137 | -12.90095 | 37402 ft | 484 kts | 84° |
| 2026-05-09 15:42 | 53.53403 | -12.78790 | 37400 ft | 484 kts | 85° |
| 2026-05-09 15:43 | 53.53658 | -12.67480 | 37397 ft | 484 kts | 85° |
| 2026-05-09 15:43 | 53.53902 | -12.56173 | 37393 ft | 484 kts | 85° |
| 2026-05-09 15:44 | 53.54135 | -12.44870 | 37392 ft | 484 kts | 85° |
| 2026-05-09 15:44 | 53.54357 | -12.33615 | 37393 ft | 485 kts | 85° |
| 2026-05-09 15:45 | 53.54570 | -12.22269 | 37387 ft | 485 kts | 85° |
| 2026-05-09 15:45 | 53.54772 | -12.10924 | 37378 ft | 485 kts | 85° |
| 2026-05-09 15:46 | 53.54962 | -11.99576 | 37378 ft | 486 kts | 85° |
| 2026-05-09 15:46 | 53.55142 | -11.88295 | 37384 ft | 486 kts | 85° |
| 2026-05-09 15:47 | 53.55312 | -11.76933 | 37376 ft | 486 kts | 85° |
| 2026-05-09 15:47 | 53.55472 | -11.65556 | 37376 ft | 487 kts | 85° |
| 2026-05-09 15:48 | 53.55620 | -11.54184 | 37366 ft | 486 kts | 86° |
| 2026-05-09 15:48 | 53.55757 | -11.42909 | 37370 ft | 485 kts | 86° |
| 2026-05-09 15:49 | 53.55885 | -11.31547 | 37368 ft | 487 kts | 86° |
| 2026-05-09 15:49 | 53.56003 | -11.20156 | 37370 ft | 488 kts | 86° |
| 2026-05-09 15:50 | 53.56108 | -11.08751 | 37359 ft | 489 kts | 86° |
| 2026-05-09 15:50 | 53.56201 | -10.97381 | 37353 ft | 490 kts | 86° |
| 2026-05-09 15:51 | 53.56285 | -10.85939 | 37355 ft | 490 kts | 87° |
| 2026-05-09 15:51 | 53.56359 | -10.74488 | 37347 ft | 489 kts | 87° |
| 2026-05-09 15:52 | 53.56448 | -10.57373 | 37342 ft | 487 kts | 87° |
| 2026-05-09 15:53 | 53.56495 | -10.46038 | 37336 ft | 489 kts | 87° |
| 2026-05-09 15:53 | 53.56530 | -10.34585 | 37337 ft | 492 kts | 87° |
| 2026-05-09 15:54 | 53.56555 | -10.23023 | 37337 ft | 495 kts | 88° |
| 2026-05-09 15:54 | 53.56569 | -10.11412 | 37325 ft | 497 kts | 88° |
| 2026-05-09 15:55 | 53.56572 | -9.99835 | 37320 ft | 494 kts | 88° |
| 2026-05-09 15:55 | 53.56564 | -9.88383 | 37298 ft | 490 kts | 88° |
| 2026-05-09 15:56 | 53.56542 | -9.76942 | 37323 ft | 490 kts | 88° |
| 2026-05-09 15:56 | 53.56514 | -9.65414 | 37312 ft | 494 kts | 88° |
| 2026-05-09 15:57 | 53.56472 | -9.53813 | 37306 ft | 499 kts | 88° |
| 2026-05-09 15:57 | 53.56417 | -9.42132 | 37301 ft | 500 kts | 88° |
| 2026-05-09 15:58 | 53.56352 | -9.30529 | 37283 ft | 498 kts | 89° |
| 2026-05-09 15:58 | 53.56275 | -9.18891 | 37275 ft | 497 kts | 89° |
| 2026-05-09 15:59 | 53.56188 | -9.07290 | 37282 ft | 496 kts | 89° |
| 2026-05-09 15:59 | 53.56094 | -8.96035 | 37285 ft | 497 kts | 89° |
| 2026-05-09 16:00 | 53.55983 | -8.84245 | 37281 ft | 499 kts | 90° |
| 2026-05-09 16:00 | 53.55868 | -8.73185 | 37264 ft | 501 kts | 90° |
| 2026-05-09 16:01 | 53.55743 | -8.62242 | 37255 ft | 502 kts | 90° |
| 2026-05-09 16:01 | 53.55607 | -8.51012 | 37278 ft | 505 kts | 90° |
| 2026-05-09 16:02 | 53.55474 | -8.40840 | 37262 ft | 506 kts | 90° |
| 2026-05-09 16:02 | 53.55227 | -8.23638 | 37251 ft | 504 kts | 91° |
| 2026-05-09 16:03 | 53.55053 | -8.12346 | 37253 ft | 503 kts | 91° |
| 2026-05-09 16:03 | 53.54857 | -8.00486 | 37261 ft | 501 kts | 91° |
| 2026-05-09 16:04 | 53.54656 | -7.88903 | 37252 ft | 502 kts | 91° |
| 2026-05-09 16:04 | 53.54443 | -7.77220 | 37254 ft | 501 kts | 91° |
| 2026-05-09 16:05 | 53.54215 | -7.65429 | 37251 ft | 501 kts | 91° |
| 2026-05-09 16:05 | 53.53977 | -7.53750 | 37264 ft | 503 kts | 92° |
| 2026-05-09 16:06 | 53.53731 | -7.42196 | 37244 ft | 504 kts | 92° |
| 2026-05-09 16:06 | 53.53472 | -7.30548 | 37248 ft | 504 kts | 92° |
| 2026-05-09 16:07 | 53.53194 | -7.18598 | 37239 ft | 503 kts | 92° |
| 2026-05-09 16:07 | 53.52913 | -7.06980 | 37247 ft | 504 kts | 92° |
| 2026-05-09 16:08 | 53.52622 | -6.95452 | 37241 ft | 505 kts | 92° |
| 2026-05-09 16:08 | 53.52320 | -6.83951 | 37236 ft | 505 kts | 92° |
| 2026-05-09 16:09 | 53.52009 | -6.72497 | 37236 ft | 504 kts | 93° |
| 2026-05-09 16:09 | 53.51683 | -6.60859 | 37234 ft | 503 kts | 93° |
| 2026-05-09 16:10 | 53.51339 | -6.49045 | 37237 ft | 503 kts | 93° |
| 2026-05-09 16:10 | 53.50989 | -6.37411 | 37242 ft | 504 kts | 93° |
| 2026-05-09 16:11 | 53.50632 | -6.25905 | 37240 ft | 506 kts | 93° |
| 2026-05-09 16:11 | 53.50268 | -6.14541 | 37241 ft | 507 kts | 94° |
| 2026-05-09 16:12 | 53.49898 | -6.03289 | 37242 ft | 509 kts | 94° |
| 2026-05-09 16:12 | 53.49501 | -5.91573 | 37243 ft | 512 kts | 94° |
| 2026-05-09 16:13 | 53.49112 | -5.80422 | 37229 ft | 510 kts | 94° |
| 2026-05-09 16:13 | 53.48715 | -5.69326 | 37227 ft | 507 kts | 94° |
| 2026-05-09 16:14 | 53.48314 | -5.58355 | 37220 ft | 504 kts | 94° |
| 2026-05-09 16:14 | 53.47904 | -5.47211 | 37246 ft | 507 kts | 94° |
| 2026-05-09 16:15 | 53.47602 | -5.35696 | 37229 ft | 510 kts | 93° |
| 2026-05-09 16:15 | 53.47309 | -5.23815 | 37216 ft | 510 kts | 93° |
| 2026-05-09 16:16 | 53.46973 | -5.12040 | 37212 ft | 506 kts | 94° |
| 2026-05-09 16:16 | 53.46612 | -5.01069 | 37209 ft | 505 kts | 94° |
| 2026-05-09 16:17 | 53.46246 | -4.90127 | 37209 ft | 507 kts | 94° |
| 2026-05-09 16:17 | 53.45883 | -4.79567 | 37207 ft | 508 kts | 94° |
| 2026-05-09 16:18 | 53.45463 | -4.67923 | 37204 ft | 508 kts | 94° |
| 2026-05-09 16:18 | 53.45069 | -4.56759 | 37212 ft | 508 kts | 94° |
| 2026-05-09 16:19 | 53.44693 | -4.45026 | 37211 ft | 509 kts | 94° |
| 2026-05-09 16:19 | 53.44306 | -4.33409 | 37201 ft | 509 kts | 94° |
| 2026-05-09 16:20 | 53.43872 | -4.22255 | 37201 ft | 509 kts | 95° |
| 2026-05-09 16:20 | 53.43386 | -4.10746 | 37189 ft | 510 kts | 95° |
| 2026-05-09 16:21 | 53.42894 | -3.99027 | 37205 ft | 510 kts | 95° |
| 2026-05-09 16:21 | 53.42400 | -3.87103 | 37199 ft | 510 kts | 95° |
| 2026-05-09 16:22 | 53.41914 | -3.75198 | 37180 ft | 510 kts | 95° |
| 2026-05-09 16:22 | 53.41103 | -3.63706 | 37167 ft | 508 kts | 104° |
| 2026-05-09 16:23 | 53.39047 | -3.52673 | 37188 ft | 504 kts | 116° |
| 2026-05-09 16:23 | 53.35975 | -3.42124 | 37186 ft | 503 kts | 119° |
| 2026-05-09 16:24 | 53.32979 | -3.31881 | 37171 ft | 503 kts | 118° |
| 2026-05-09 16:24 | 53.29906 | -3.21270 | 37167 ft | 502 kts | 118° |
| 2026-05-09 16:25 | 53.26986 | -3.11227 | 37158 ft | 502 kts | 118° |
| 2026-05-09 16:25 | 53.24134 | -3.01470 | 37158 ft | 502 kts | 118° |
| 2026-05-09 16:26 | 53.21227 | -2.91571 | 37154 ft | 501 kts | 118° |
| 2026-05-09 16:26 | 53.18383 | -2.81923 | 37154 ft | 501 kts | 119° |
| 2026-05-09 16:27 | 53.15507 | -2.72208 | 37161 ft | 500 kts | 119° |
| 2026-05-09 16:27 | 53.12677 | -2.62685 | 37160 ft | 501 kts | 119° |
| 2026-05-09 16:28 | 53.09939 | -2.53510 | 37152 ft | 500 kts | 119° |
| 2026-05-09 16:28 | 53.06992 | -2.43663 | 37153 ft | 500 kts | 119° |
| 2026-05-09 16:29 | 53.03859 | -2.33449 | 37154 ft | 498 kts | 125° |
| 2026-05-09 16:29 | 53.01744 | -2.29046 | 37135 ft | 490 kts | 141° |
| 2026-05-09 16:29 | 52.99171 | -2.25974 | 37182 ft | 483 kts | 153° |
| 2026-05-09 16:30 | 52.93612 | -2.20442 | 37136 ft | 486 kts | 152° |
| 2026-05-09 16:30 | 52.87909 | -2.14602 | 37135 ft | 486 kts | 151° |
| 2026-05-09 16:31 | 52.85048 | -2.11634 | 36600 ft | 495 kts | 151° |
| 2026-05-09 16:31 | 52.82150 | -2.08618 | 36034 ft | 498 kts | 151° |
| 2026-05-09 16:31 | 52.79251 | -2.05595 | 35321 ft | 497 kts | 151° |
| 2026-05-09 16:31 | 52.76350 | -2.02571 | 34778 ft | 490 kts | 151° |
| 2026-05-09 16:32 | 52.73504 | -1.99609 | 34177 ft | 485 kts | 152° |
| 2026-05-09 16:32 | 52.71550 | -1.97581 | 33651 ft | 483 kts | 152° |
| 2026-05-09 16:32 | 52.67768 | -1.93669 | 32341 ft | 484 kts | 152° |
| 2026-05-09 16:32 | 52.64915 | -1.90728 | 31233 ft | 487 kts | 151° |
| 2026-05-09 16:33 | 52.62001 | -1.87729 | 30257 ft | 488 kts | 151° |
| 2026-05-09 16:33 | 52.59144 | -1.84789 | 29489 ft | 482 kts | 151° |
| 2026-05-09 16:33 | 52.56330 | -1.81895 | 28818 ft | 475 kts | 151° |
| 2026-05-09 16:33 | 52.53534 | -1.79024 | 28145 ft | 469 kts | 151° |
| 2026-05-09 16:34 | 52.50782 | -1.76205 | 27477 ft | 464 kts | 151° |
| 2026-05-09 16:34 | 52.48063 | -1.73424 | 26818 ft | 459 kts | 151° |
| 2026-05-09 16:34 | 52.45354 | -1.70659 | 26157 ft | 455 kts | 150° |
| 2026-05-09 16:34 | 52.42680 | -1.67933 | 25523 ft | 451 kts | 150° |
| 2026-05-09 16:35 | 52.40020 | -1.65225 | 24917 ft | 447 kts | 150° |
| 2026-05-09 16:35 | 52.37387 | -1.62548 | 24324 ft | 443 kts | 150° |
| 2026-05-09 16:35 | 52.34810 | -1.59932 | 23740 ft | 439 kts | 150° |
| 2026-05-09 16:35 | 52.32228 | -1.57314 | 23076 ft | 436 kts | 150° |
| 2026-05-09 16:36 | 52.29658 | -1.54711 | 22476 ft | 434 kts | 150° |
| 2026-05-09 16:36 | 52.22184 | -1.47161 | 22111 ft | 430 kts | 150° |
| 2026-05-09 16:37 | 52.19744 | -1.44382 | 22025 ft | 427 kts | 143° |
| 2026-05-09 16:37 | 52.17503 | -1.41320 | 21494 ft | 413 kts | 140° |
| 2026-05-09 16:37 | 52.15376 | -1.38209 | 20529 ft | 409 kts | 140° |
| 2026-05-09 16:37 | 52.13274 | -1.35114 | 19553 ft | 406 kts | 140° |
| 2026-05-09 16:38 | 52.12403 | -1.33846 | 19147 ft | 405 kts | 140° |
| 2026-05-09 16:38 | 52.10298 | -1.30827 | 18223 ft | 401 kts | 140° |
| 2026-05-09 16:38 | 52.08202 | -1.27874 | 17435 ft | 397 kts | 141° |
| 2026-05-09 16:38 | 52.06111 | -1.24958 | 17047 ft | 396 kts | 141° |
| 2026-05-09 16:39 | 52.04015 | -1.22049 | 16633 ft | 395 kts | 141° |
| 2026-05-09 16:39 | 52.01928 | -1.19160 | 16180 ft | 394 kts | 141° |
| 2026-05-09 16:39 | 51.99852 | -1.16289 | 15792 ft | 391 kts | 141° |
| 2026-05-09 16:39 | 51.97783 | -1.13432 | 15411 ft | 390 kts | 141° |
| 2026-05-09 16:40 | 51.95724 | -1.10591 | 15007 ft | 388 kts | 141° |
| 2026-05-09 16:40 | 51.93700 | -1.07801 | 14516 ft | 387 kts | 141° |
| 2026-05-09 16:42 | 51.82323 | -0.86626 | 11133 ft | 318 kts | 117° |
| 2026-05-09 16:42 | 51.81377 | -0.83477 | 10721 ft | 305 kts | 117° |
| 2026-05-09 16:42 | 51.80459 | -0.80457 | 10328 ft | 294 kts | 118° |
| 2026-05-09 16:42 | 51.79567 | -0.77537 | 9971 ft | 284 kts | 118° |
| 2026-05-09 16:43 | 51.78716 | -0.74759 | 9588 ft | 276 kts | 118° |
| 2026-05-09 16:43 | 51.77879 | -0.72032 | 9225 ft | 267 kts | 118° |
| 2026-05-09 16:43 | 51.77054 | -0.69350 | 8876 ft | 269 kts | 118° |
| 2026-05-09 16:43 | 51.76485 | -0.67503 | 8660 ft | 273 kts | 118° |
| 2026-05-09 16:44 | 51.75681 | -0.64890 | 8314 ft | 276 kts | 118° |
| 2026-05-09 16:44 | 51.74819 | -0.62104 | 7962 ft | 278 kts | 118° |
| 2026-05-09 16:44 | 51.73967 | -0.59354 | 7623 ft | 271 kts | 117° |
| 2026-05-09 16:44 | 51.73094 | -0.56699 | 7278 ft | 263 kts | 127° |
| 2026-05-09 16:45 | 51.71776 | -0.54853 | 7143 ft | 243 kts | 157° |
| 2026-05-09 16:45 | 51.70206 | -0.54426 | 7118 ft | 221 kts | 189° |
| 2026-05-09 16:45 | 51.68868 | -0.55359 | 7081 ft | 223 kts | 216° |
| 2026-05-09 16:45 | 51.67588 | -0.57029 | 7096 ft | 247 kts | 221° |
| 2026-05-09 16:46 | 51.66389 | -0.59065 | 7033 ft | 252 kts | 229° |
| 2026-05-09 16:46 | 51.65323 | -0.61366 | 6661 ft | 256 kts | 234° |
| 2026-05-09 16:46 | 51.64336 | -0.63723 | 6475 ft | 250 kts | 235° |
| 2026-05-09 16:46 | 51.63375 | -0.66006 | 6370 ft | 243 kts | 234° |
| 2026-05-09 16:47 | 51.62421 | -0.68235 | 6293 ft | 243 kts | 234° |
| 2026-05-09 16:47 | 51.61457 | -0.70459 | 6173 ft | 241 kts | 233° |
| 2026-05-09 16:47 | 51.60498 | -0.72651 | 6086 ft | 238 kts | 233° |
| 2026-05-09 16:47 | 51.59558 | -0.74799 | 5995 ft | 238 kts | 233° |
| 2026-05-09 16:48 | 51.58608 | -0.77023 | 5586 ft | 246 kts | 238° |
| 2026-05-09 16:48 | 51.57759 | -0.79411 | 5287 ft | 243 kts | 236° |
| 2026-05-09 16:48 | 51.56942 | -0.81785 | 5009 ft | 244 kts | 243° |
| 2026-05-09 16:48 | 51.56245 | -0.84276 | 4741 ft | 244 kts | 244° |
| 2026-05-09 16:49 | 51.55568 | -0.86775 | 4385 ft | 246 kts | 244° |
| 2026-05-09 16:49 | 51.54880 | -0.89330 | 3970 ft | 250 kts | 244° |
| 2026-05-09 16:49 | 51.54230 | -0.91894 | 3534 ft | 246 kts | 249° |
| 2026-05-09 16:50 | 51.52507 | -0.96030 | 3041 ft | 206 kts | 198° |
| 2026-05-09 16:50 | 51.51176 | -0.96343 | 3052 ft | 191 kts | 176° |
| 2026-05-09 16:50 | 51.49923 | -0.95903 | 2995 ft | 182 kts | 156° |
| 2026-05-09 16:50 | 51.48921 | -0.94799 | 2975 ft | 168 kts | 134° |
| 2026-05-09 16:51 | 51.48261 | -0.93357 | 2987 ft | 157 kts | 120° |
| 2026-05-09 16:51 | 51.47917 | -0.91722 | 2990 ft | 158 kts | 95° |
| 2026-05-09 16:51 | 51.47912 | -0.89907 | 3017 ft | 168 kts | 95° |
| 2026-05-09 16:51 | 51.47867 | -0.88044 | 2986 ft | 165 kts | 95° |
| 2026-05-09 16:52 | 51.47826 | -0.86242 | 2989 ft | 162 kts | 95° |
| 2026-05-09 16:52 | 51.47790 | -0.84461 | 2972 ft | 159 kts | 94° |
| 2026-05-09 16:52 | 51.47762 | -0.82695 | 2984 ft | 162 kts | 94° |
| 2026-05-09 16:52 | 51.47722 | -0.80810 | 2983 ft | 173 kts | 95° |
| 2026-05-09 16:53 | 51.47636 | -0.78951 | 2967 ft | 162 kts | 96° |
| 2026-05-09 16:53 | 51.47584 | -0.77155 | 2981 ft | 160 kts | 94° |
| 2026-05-09 16:53 | 51.47572 | -0.75402 | 2979 ft | 153 kts | 93° |
| 2026-05-09 16:53 | 51.47571 | -0.73732 | 3001 ft | 148 kts | 92° |
| 2026-05-09 16:54 | 51.47579 | -0.72071 | 2973 ft | 150 kts | 92° |
| 2026-05-09 16:54 | 51.47590 | -0.70349 | 2796 ft | 156 kts | 91° |
| 2026-05-09 16:54 | 51.47601 | -0.68620 | 2571 ft | 153 kts | 92° |
| 2026-05-09 16:54 | 51.47613 | -0.66987 | 2378 ft | 145 kts | 92° |
| 2026-05-09 16:55 | 51.47622 | -0.65353 | 2181 ft | 147 kts | 92° |
| 2026-05-09 16:55 | 51.47629 | -0.63757 | 1979 ft | 143 kts | 91° |
| 2026-05-09 16:55 | 51.47643 | -0.62164 | 1782 ft | 142 kts | 92° |
| 2026-05-09 16:55 | 51.47652 | -0.60576 | 1617 ft | 145 kts | 92° |
| 2026-05-09 16:56 | 51.47663 | -0.58925 | 1410 ft | 150 kts | 91° |
| 2026-05-09 16:56 | 51.47676 | -0.57234 | 1196 ft | 149 kts | 91° |
| 2026-05-09 16:56 | 51.47687 | -0.55607 | 982 ft | 144 kts | 91° |
| 2026-05-09 16:56 | 51.47695 | -0.54026 | 804 ft | 140 kts | 91° |
| 2026-05-09 16:57 | 51.47702 | -0.52992 | 669 ft | 138 kts | 91° |
| 2026-05-09 16:57 | 51.47721 | -0.51482 | 480 ft | 135 kts | 88° |
| 2026-05-09 16:57 | 51.47753 | -0.49444 | 238 ft | 137 kts | 91° |
| 2026-05-09 16:57 | 51.47748 | -0.47926 | 93 ft | 132 kts | 91° |
| 2026-05-09 16:58 | 51.47751 | -0.47009 | 94 ft | 107 kts | 89° |
| 2026-05-09 16:58 | 51.47757 | -0.45845 | 93 ft | 50 kts | 90° |
| 2026-05-09 16:58 | 51.47757 | -0.45590 | 94 ft | 18 kts | 97° |
| 2026-05-09 16:58 | 51.47676 | -0.45472 | 93 ft | 14 kts | 176° |
| 2026-05-09 16:59 | 51.47604 | -0.45563 | 90 ft | 15 kts | 251° |
| 2026-05-09 16:59 | 51.47595 | -0.45735 | 93 ft | 16 kts | 268° |
| 2026-05-09 16:59 | 51.47593 | -0.45910 | 93 ft | 16 kts | 270° |
| 2026-05-09 16:59 | 51.47594 | -0.46085 | 93 ft | 16 kts | 269° |
| 2026-05-09 17:00 | 51.47593 | -0.46260 | 93 ft | 16 kts | 270° |
| 2026-05-09 17:00 | 51.47593 | -0.46436 | 93 ft | 16 kts | 270° |
| 2026-05-09 17:00 | 51.47594 | -0.46610 | 93 ft | 16 kts | 270° |
| 2026-05-09 17:00 | 51.47592 | -0.46786 | 93 ft | 16 kts | 266° |
| 2026-05-09 17:01 | 51.47585 | -0.46969 | 93 ft | 21 kts | 265° |
| 2026-05-09 17:01 | 51.47580 | -0.47209 | 93 ft | 22 kts | 270° |
| 2026-05-09 17:01 | 51.47581 | -0.47451 | 93 ft | 22 kts | 271° |
| 2026-05-09 17:01 | 51.47580 | -0.47692 | 93 ft | 22 kts | 271° |
| 2026-05-09 17:02 | 51.47533 | -0.47870 | 94 ft | 18 kts | 199° |
| 2026-05-09 17:02 | 51.47409 | -0.47875 | 90 ft | 18 kts | 179° |
| 2026-05-09 17:02 | 51.47286 | -0.47875 | 90 ft | 18 kts | 180° |
| 2026-05-09 17:02 | 51.47214 | -0.47983 | 92 ft | 15 kts | 271° |
| 2026-05-09 17:03 | 51.47214 | -0.48014 | 91 ft | 0 kts | 270° |